Terminal Aerodrome Forecast
Issued by NWS Bismarck, ND

Home | Current Version | Previous Version | Graphics & Text | Print | Product List | Glossary On
Versions: 1 2 3 4 5 6 7 8 9 10 11 12 13 14 15 16 17 18 19 20 21 22 23 24
000
FTUS43 KBIS 241900 AAA
TAFISN
TAF AMD
KISN 241923Z 2419/2518 14014G20KT P6SM VCTS SCT090CB
     FM242300 VRB05KT P6SM VCTS SCT060CB SCT090
      TEMPO 2501/2503 VRB25G40KT 4SM TSRA BKN050CB
     FM250300 32017G27KT P6SM SCT070 SCT090
     FM250700 28009KT P6SM SKC=

USA.gov is the U.S. government's official web portal to all federal, state and local government web resources and services.